Time,TemperatureF,DewpointF,PressureIn,WindDirection,WindDirectionDegrees,WindSpeedMPH,WindSpeedGustMPH,Humidity,HourlyPrecipIn,Conditions,Clouds,dailyrainin,SolarRadiationWatts/m^2,SoftwareType,DateUTC
2013-05-26 00:00:00,47.0,22.0,-100.00,NNW,332,0.0,1.0,37,-99.99,,,-99.99,0.000000,,2013-05-26 06:00:00,
2013-05-26 00:52:00,47.0,22.0,-100.00,NNW,332,0.0,1.0,37,-99.99,,,-99.99,0.000000,,2013-05-26 06:52:00,
2013-05-26 01:00:00,44.0,-99.9,-100.00,North,-999,-999.0,-999.0,-999,-99.99,,,-99.99,,,2013-05-26 07:00:00,
2013-05-26 01:52:00,44.0,-99.9,-100.00,North,-999,-999.0,-999.0,-999,-99.99,,,-99.99,,,2013-05-26 07:52:00,
2013-05-26 02:00:00,43.0,-99.9,-100.00,North,-999,-999.0,-999.0,-999,-99.99,,,-99.99,,,2013-05-26 08:00:00,
2013-05-26 02:53:00,43.0,-99.9,-100.00,North,-999,-999.0,-999.0,-999,-99.99,,,-99.99,,,2013-05-26 08:53:00,
2013-05-26 03:00:00,41.0,28.0,-100.00,SE,137,0.0,1.0,61,-99.99,,,-99.99,0.000000,,2013-05-26 09:00:00,
2013-05-26 03:53:00,41.0,28.0,-100.00,SE,137,0.0,1.0,61,-99.99,,,-99.99,0.000000,,2013-05-26 09:53:00,
2013-05-26 04:00:00,40.0,27.0,-100.00,SE,141,0.0,0.0,61,-99.99,,,-99.99,0.000000,,2013-05-26 10:00:00,
2013-05-26 04:52:00,40.0,27.0,-100.00,SE,141,0.0,0.0,61,-99.99,,,-99.99,0.000000,,2013-05-26 10:52:00,
2013-05-26 05:00:00,38.0,26.0,-100.00,SSE,151,0.0,0.0,60,-99.99,,,-99.99,0.000000,,2013-05-26 11:00:00,
2013-05-26 05:52:00,38.0,26.0,-100.00,SSE,151,0.0,0.0,60,-99.99,,,-99.99,0.000000,,2013-05-26 11:52:00,
2013-05-26 06:00:00,39.0,23.0,-100.00,SE,146,0.0,1.0,52,-99.99,,,-99.99,0.600000,,2013-05-26 12:00:00,
2013-05-26 06:52:00,39.0,23.0,-100.00,SE,146,0.0,1.0,52,-99.99,,,-99.99,0.600000,,2013-05-26 12:52:00,
2013-05-26 07:00:00,41.0,22.0,-100.00,SSE,151,0.0,0.0,47,-99.99,,,-99.99,16.200001,,2013-05-26 13:00:00,
2013-05-26 07:52:00,41.0,22.0,-100.00,SSE,151,0.0,0.0,47,-99.99,,,-99.99,16.200001,,2013-05-26 13:52:00,
2013-05-26 08:00:00,48.0,27.0,-100.00,South,185,0.0,2.0,44,-99.99,,,-99.99,65.000000,,2013-05-26 14:00:00,
2013-05-26 08:52:00,48.0,27.0,-100.00,South,185,0.0,2.0,44,-99.99,,,-99.99,65.000000,,2013-05-26 14:52:00,
2013-05-26 09:00:00,58.0,23.0,-100.00,West,273,1.0,3.0,26,-99.99,,,-99.99,186.800003,,2013-05-26 15:00:00,
2013-05-26 09:53:00,58.0,23.0,-100.00,West,273,1.0,3.0,26,-99.99,,,-99.99,186.800003,,2013-05-26 15:53:00,
2013-05-26 11:00:00,-999.0,-99.9,-100.00,NW,313,2.0,5.0,15,-99.99,,,-99.99,710.900024,,2013-05-26 17:00:00,
2013-05-26 11:52:00,-999.0,-99.9,-100.00,NW,313,2.0,5.0,15,-99.99,,,-99.99,710.900024,,2013-05-26 17:52:00,
2013-05-26 12:00:00,69.0,16.0,-100.00,NW,311,2.0,5.0,13,-99.99,,,0.00,850.400024,,2013-05-26 18:00:00,
2013-05-26 12:52:00,69.0,16.0,-100.00,NW,311,2.0,5.0,13,-99.99,,,0.00,850.400024,,2013-05-26 18:52:00,
2013-05-26 13:00:00,70.0,15.0,-100.00,WNW,283,2.0,8.0,12,-99.99,,,0.00,988.400024,,2013-05-26 19:00:00,
2013-05-26 13:52:00,70.0,15.0,-100.00,WNW,283,2.0,8.0,12,-99.99,,,0.00,988.400024,,2013-05-26 19:52:00,
2013-05-26 14:00:00,73.0,16.0,-100.00,WNW,286,3.0,10.0,11,-99.99,,,0.00,,,2013-05-26 20:00:00,
2013-05-26 14:52:00,73.0,16.0,-100.00,WNW,286,3.0,10.0,11,-99.99,,,0.00,,,2013-05-26 20:52:00,
2013-05-26 15:00:00,70.0,11.0,-100.00,WSW,258,3.0,9.0,10,-99.99,,,0.00,887.400024,,2013-05-26 21:00:00,
2013-05-26 15:53:00,70.0,11.0,-100.00,WSW,258,3.0,9.0,10,-99.99,,,0.00,887.400024,,2013-05-26 21:53:00,
2013-05-26 16:00:00,70.0,11.0,-100.00,West,276,3.0,7.0,10,-99.99,,,0.00,395.299988,,2013-05-26 22:00:00,
2013-05-26 16:53:00,70.0,11.0,-100.00,West,276,3.0,7.0,10,-99.99,,,0.00,395.299988,,2013-05-26 22:53:00,
2013-05-26 17:00:00,70.0,11.0,-100.00,West,280,3.0,8.0,10,-99.99,,,0.00,60.700001,,2013-05-26 23:00:00,
2013-05-26 17:52:00,70.0,11.0,-100.00,West,280,3.0,8.0,10,-99.99,,,0.00,60.700001,,2013-05-26 23:52:00,
2013-05-26 18:00:00,68.0,9.0,-100.00,West,259,3.0,7.0,10,-99.99,,,0.00,192.000000,,2013-05-27 00:00:00,
2013-05-26 18:52:00,68.0,9.0,-100.00,West,259,3.0,7.0,10,-99.99,,,0.00,192.000000,,2013-05-27 00:52:00,
2013-05-26 19:00:00,66.0,10.0,-100.00,WSW,246,2.0,6.0,11,-99.99,,,-99.99,103.500000,,2013-05-27 01:00:00,
2013-05-26 19:52:00,66.0,10.0,-100.00,WSW,246,2.0,6.0,11,-99.99,,,-99.99,103.500000,,2013-05-27 01:52:00,
2013-05-26 20:00:00,61.0,8.0,-100.00,WSW,243,1.0,6.0,12,-99.99,,,-99.99,13.700000,,2013-05-27 02:00:00,
2013-05-26 20:52:00,61.0,8.0,-100.00,WSW,243,1.0,6.0,12,-99.99,,,-99.99,13.700000,,2013-05-27 02:52:00,
2013-05-26 21:00:00,55.0,10.0,-100.00,SE,142,1.0,3.0,16,-99.99,,,0.00,0.600000,,2013-05-27 03:00:00,
2013-05-26 21:53:00,55.0,10.0,-100.00,SE,142,1.0,3.0,16,-99.99,,,0.00,0.600000,,2013-05-27 03:53:00,
2013-05-26 22:00:00,48.0,10.0,-100.00,SE,146,0.0,2.0,21,-99.99,,,-99.99,0.000000,,2013-05-27 04:00:00,
2013-05-26 22:52:00,48.0,10.0,-100.00,SE,146,0.0,2.0,21,-99.99,,,-99.99,0.000000,,2013-05-27 04:52:00,
2013-05-26 23:00:00,46.0,13.0,-100.00,SE,139,1.0,4.0,26,-99.99,,,0.00,0.000000,,2013-05-27 05:00:00,
2013-05-26 23:52:00,46.0,13.0,-100.00,SE,139,1.0,4.0,26,-99.99,,,0.00,0.000000,,2013-05-27 05:52:00,